Back to Top

Language: 

My Weather Underground Personal Weather Station Historical Data with Graphs...

Delerius Weather Station Historical Data
Daily Summary for September 6, 2017 Units:  English    Metric   Both
« Previous Day
Next Day »
Daily Weekly Monthly Yearly Custom
  High: Low: Average:
Temperature: 63.1 °F 52.0 °F 56.9 °F
Dew Point: 52.8 °F 49.9 °F 51 °F
Humidity: 94 % 65 % 81 %
Wind Speed: 16.0 mph 0.0 mph 7.3 mph
Wind Gust: 27.0 mph - -
Wind:- - West
Pressure: 30.05 in 29.94 in -
Precipitation: 0.02 in    
Historical Graphs
 
 
Tabular Data for September 6, 2017
Time Temperature Dew Point Pressure Wind Wind Speed Wind Gust Humidity Rainfall Rate (Hourly) solar Conditions
00:03 52.0 °F 50.3 °F 29.94 in WNW 1.0 mph 5.0 mph 94 % 0.00 in 0 W/m2
00:08 52.2 °F 50.5 °F 29.94 in WNW 1.0 mph 5.0 mph 94 % 0.00 in 0 W/m2
00:13 52.2 °F 50.5 °F 29.94 in WNW 2.0 mph 6.0 mph 94 % 0.00 in 0 W/m2
00:18 52.3 °F 50.7 °F 29.94 in West 3.0 mph 8.0 mph 94 % 0.00 in 0 W/m2
00:23 52.3 °F 50.4 °F 29.94 in West 2.0 mph 8.0 mph 93 % 0.00 in 0 W/m2
00:28 52.3 °F 50.4 °F 29.94 in West 1.0 mph 5.0 mph 93 % 0.00 in 0 W/m2
00:33 52.3 °F 50.4 °F 29.94 in West 2.0 mph 6.0 mph 93 % 0.00 in 0 W/m2
00:38 52.5 °F 50.6 °F 29.94 in West 2.0 mph 7.0 mph 93 % 0.00 in 0 W/m2
00:43 52.5 °F 50.6 °F 29.94 in West 1.0 mph 7.0 mph 93 % 0.00 in 0 W/m2
00:49 52.3 °F 50.4 °F 29.94 in West 2.0 mph 7.0 mph 93 % 0.00 in 0 W/m2
00:54 52.5 °F 50.3 °F 29.94 in West 3.0 mph 7.0 mph 92 % 0.00 in 0 W/m2
00:59 52.5 °F 50.3 °F 29.94 in West 3.0 mph 8.0 mph 92 % 0.00 in 0 W/m2
01:04 52.5 °F 50.3 °F 29.94 in West 4.0 mph 8.0 mph 92 % 0.00 in 0 W/m2
01:09 52.9 °F 50.6 °F 29.94 in West 5.0 mph 10.0 mph 92 % 0.00 in 0 W/m2
01:14 52.9 °F 50.6 °F 29.94 in West 6.0 mph 10.0 mph 92 % 0.00 in 0 W/m2
01:19 53.1 °F 50.5 °F 29.94 in West 5.0 mph 9.0 mph 91 % 0.00 in 0 W/m2
01:24 53.2 °F 50.7 °F 29.94 in West 6.0 mph 12.0 mph 91 % 0.00 in 0 W/m2
01:29 53.4 °F 50.9 °F 29.94 in West 7.0 mph 12.0 mph 91 % 0.00 in 0 W/m2
01:34 53.8 °F 50.9 °F 29.94 in West 8.0 mph 15.0 mph 90 % 0.00 in 0 W/m2
01:39 54.0 °F 50.8 °F 29.94 in West 7.0 mph 15.0 mph 89 % 0.00 in 0 W/m2
01:44 54.0 °F 50.8 °F 29.94 in West 5.0 mph 13.0 mph 89 % 0.00 in 0 W/m2
01:49 54.0 °F 50.8 °F 29.94 in West 5.0 mph 8.0 mph 89 % 0.00 in 0 W/m2
01:54 53.8 °F 50.6 °F 29.94 in West 6.0 mph 10.0 mph 89 % 0.00 in 0 W/m2
01:59 53.8 °F 50.6 °F 29.94 in West 6.0 mph 10.0 mph 89 % 0.00 in 0 W/m2
02:04 53.8 °F 50.6 °F 29.94 in West 7.0 mph 14.0 mph 89 % 0.00 in 0 W/m2
02:09 54.0 °F 50.8 °F 29.94 in West 8.0 mph 15.0 mph 89 % 0.00 in 0 W/m2
02:14 54.0 °F 50.8 °F 29.94 in West 8.0 mph 15.0 mph 89 % 0.00 in 0 W/m2
02:19 54.1 °F 51.0 °F 29.94 in WNW 8.0 mph 12.0 mph 89 % 0.00 in 0 W/m2
02:24 54.1 °F 51.0 °F 29.94 in WNW 6.0 mph 12.0 mph 89 % 0.00 in 0 W/m2
02:29 54.1 °F 51.0 °F 29.94 in WNW 6.0 mph 10.0 mph 89 % 0.00 in 0 W/m2
02:34 54.1 °F 51.0 °F 29.94 in WNW 6.0 mph 10.0 mph 89 % 0.00 in 0 W/m2
02:39 54.1 °F 51.0 °F 29.94 in WNW 5.0 mph 9.0 mph 89 % 0.00 in 0 W/m2
02:44 54.3 °F 51.1 °F 29.94 in West 6.0 mph 10.0 mph 89 % 0.00 in 0 W/m2
02:49 54.3 °F 51.1 °F 29.94 in West 6.0 mph 10.0 mph 89 % 0.00 in 0 W/m2
02:54 54.1 °F 51.3 °F 29.94 in West 5.0 mph 9.0 mph 90 % 0.00 in 0 W/m2
02:59 54.1 °F 51.3 °F 29.94 in West 5.0 mph 9.0 mph 90 % 0.00 in 0 W/m2
03:04 54.1 °F 51.3 °F 29.94 in West 3.0 mph 8.0 mph 90 % 0.00 in 0 W/m2
03:09 54.0 °F 51.1 °F 29.94 in West 2.0 mph 6.0 mph 90 % 0.00 in 0 W/m2
03:14 54.0 °F 51.1 °F 29.94 in WSW 1.0 mph 7.0 mph 90 % 0.00 in 0 W/m2
03:19 53.8 °F 50.9 °F 29.94 in WSW 1.0 mph 7.0 mph 90 % 0.00 in 0 W/m2
03:24 53.4 °F 50.6 °F 29.94 in West 3.0 mph 5.0 mph 90 % 0.00 in 0 W/m2
03:29 53.2 °F 50.7 °F 29.94 in WNW 4.0 mph 6.0 mph 91 % 0.00 in 0 W/m2
03:34 53.2 °F 50.7 °F 29.94 in WNW 4.0 mph 6.0 mph 91 % 0.00 in 0 W/m2
03:39 53.1 °F 50.5 °F 29.94 in West 4.0 mph 7.0 mph 91 % 0.00 in 0 W/m2
03:44 53.1 °F 50.5 °F 29.94 in WNW 3.0 mph 7.0 mph 91 % 0.00 in 0 W/m2
03:49 53.1 °F 50.8 °F 29.94 in West 3.0 mph 6.0 mph 92 % 0.00 in 0 W/m2
03:54 52.9 °F 50.6 °F 29.94 in West 4.0 mph 6.0 mph 92 % 0.00 in 0 W/m2
03:59 52.9 °F 50.6 °F 29.94 in West 4.0 mph 8.0 mph 92 % 0.00 in 0 W/m2
04:04 53.1 °F 50.8 °F 29.94 in West 4.0 mph 8.0 mph 92 % 0.00 in 0 W/m2
04:09 53.1 °F 50.5 °F 29.94 in West 5.0 mph 9.0 mph 91 % 0.00 in 0 W/m2
04:13 53.2 °F 50.7 °F 29.94 in West 6.0 mph 9.0 mph 91 % 0.00 in 0 W/m2
04:18 53.2 °F 50.7 °F 29.94 in West 6.0 mph 9.0 mph 91 % 0.00 in 0 W/m2
04:23 53.2 °F 50.7 °F 29.94 in West 6.0 mph 11.0 mph 91 % 0.00 in 0 W/m2
04:28 53.2 °F 50.7 °F 29.94 in West 5.0 mph 11.0 mph 91 % 0.00 in 0 W/m2
04:33 53.2 °F 50.7 °F 29.94 in WNW 4.0 mph 8.0 mph 91 % 0.00 in 0 W/m2
04:38 53.2 °F 50.7 °F 29.95 in WNW 4.0 mph 8.0 mph 91 % 0.00 in 0 W/m2
04:43 53.2 °F 50.7 °F 29.95 in West 4.0 mph 8.0 mph 91 % 0.00 in 0 W/m2
04:48 53.4 °F 50.9 °F 29.95 in West 4.0 mph 8.0 mph 91 % 0.00 in 0 W/m2
04:53 53.4 °F 50.9 °F 29.95 in West 5.0 mph 9.0 mph 91 % 0.00 in 0 W/m2
04:58 53.8 °F 50.9 °F 29.95 in West 5.0 mph 9.0 mph 90 % 0.00 in 0 W/m2
05:03 54.0 °F 51.1 °F 29.95 in West 5.0 mph 9.0 mph 90 % 0.00 in 0 W/m2
05:08 54.0 °F 51.1 °F 29.95 in West 5.0 mph 9.0 mph 90 % 0.00 in 0 W/m2
05:13 54.1 °F 51.3 °F 29.95 in West 5.0 mph 9.0 mph 90 % 0.00 in 0 W/m2
05:18 54.1 °F 51.3 °F 29.95 in West 5.0 mph 8.0 mph 90 % 0.00 in 0 W/m2
05:23 54.0 °F 50.8 °F 29.95 in West 3.0 mph 7.0 mph 89 % 0.00 in 0 W/m2
05:28 54.0 °F 50.8 °F 29.95 in West 3.0 mph 7.0 mph 89 % 0.00 in 0 W/m2
05:33 53.8 °F 50.6 °F 29.95 in West 3.0 mph 7.0 mph 89 % 0.00 in 0 W/m2
05:38 53.6 °F 50.4 °F 29.95 in West 1.0 mph 6.0 mph 89 % 0.00 in 0 W/m2
05:43 53.2 °F 50.1 °F 29.96 in Calm   2.0 mph 89 % 0.00 in 0 W/m2
05:48 53.2 °F 50.1 °F 29.96 in Calm   2.0 mph 89 % 0.00 in 0 W/m2
05:53 53.1 °F 49.9 °F 29.95 in Calm     89 % 0.00 in 0 W/m2
05:58 52.9 °F 50.0 °F 29.96 in West 1.0 mph 4.0 mph 90 % 0.00 in 0 W/m2
06:04 52.9 °F 50.0 °F 29.96 in West 1.0 mph 4.0 mph 90 % 0.00 in 0 W/m2
06:09 52.9 °F 50.0 °F 29.96 in West 1.0 mph 5.0 mph 90 % 0.00 in 0 W/m2
06:14 52.9 °F 50.0 °F 29.96 in West 2.0 mph 6.0 mph 90 % 0.00 in 0 W/m2
06:19 52.9 °F 50.3 °F 29.96 in West 3.0 mph 6.0 mph 91 % 0.00 in 0 W/m2
06:24 53.1 °F 50.5 °F 29.97 in WSW 2.0 mph 5.0 mph 91 % 0.00 in 0 W/m2
06:29 53.1 °F 50.5 °F 29.96 in WSW 1.0 mph 5.0 mph 91 % 0.00 in 0 W/m2
06:34 53.2 °F 50.7 °F 29.97 in West 1.0 mph 5.0 mph 91 % 0.00 in 5 W/m2
06:39 53.2 °F 50.4 °F 29.97 in West 1.0 mph 4.0 mph 90 % 0.00 in 5 W/m2
06:44 53.2 °F 50.4 °F 29.97 in Calm   4.0 mph 90 % 0.00 in 7 W/m2
06:49 53.2 °F 50.4 °F 29.98 in Calm   5.0 mph 90 % 0.00 in 7 W/m2
06:53 53.4 °F 50.6 °F 29.98 in WNW 1.0 mph 5.0 mph 90 % 0.00 in 5 W/m2
06:58 53.4 °F 50.6 °F 29.97 in WNW 2.0 mph 5.0 mph 90 % 0.00 in 9 W/m2
07:03 53.4 °F 50.6 °F 29.98 in WNW 2.0 mph 6.0 mph 90 % 0.00 in 11 W/m2
07:08 53.6 °F 50.4 °F 29.98 in West 3.0 mph 6.0 mph 89 % 0.00 in 12 W/m2
07:13 53.8 °F 50.6 °F 29.98 in West 3.0 mph 8.0 mph 89 % 0.00 in 25 W/m2
07:18 54.0 °F 50.8 °F 29.98 in West 3.0 mph 8.0 mph 89 % 0.00 in 23 W/m2
07:23 54.0 °F 50.8 °F 29.98 in West 5.0 mph 13.0 mph 89 % 0.00 in 26 W/m2
07:28 54.1 °F 50.7 °F 29.98 in West 8.0 mph 15.0 mph 88 % 0.00 in 32 W/m2
07:33 54.3 °F 50.5 °F 29.98 in WNW 10.0 mph 19.0 mph 87 % 0.00 in 40 W/m2
07:38 54.7 °F 50.6 °F 29.98 in WNW 10.0 mph 19.0 mph 86 % 0.00 in 44 W/m2
07:43 54.9 °F 50.8 °F 29.98 in WNW 9.0 mph 15.0 mph 86 % 0.00 in 44 W/m2
07:48 54.9 °F 50.8 °F 29.99 in WNW 8.0 mph 15.0 mph 86 % 0.00 in 46 W/m2
07:53 55.0 °F 50.6 °F 29.99 in WNW 8.0 mph 15.0 mph 85 % 0.00 in 51 W/m2
07:58 55.0 °F 50.6 °F 29.99 in WNW 9.0 mph 15.0 mph 85 % 0.00 in 49 W/m2
08:03 55.0 °F 50.6 °F 29.99 in WNW 9.0 mph 16.0 mph 85 % 0.00 in 53 W/m2
08:08 55.2 °F 50.8 °F 29.99 in WNW 9.0 mph 16.0 mph 85 % 0.00 in 49 W/m2
08:13 55.2 °F 50.8 °F 29.99 in WNW 8.0 mph 16.0 mph 85 % 0.00 in 51 W/m2
08:18 55.2 °F 50.8 °F 29.99 in WNW 8.0 mph 15.0 mph 85 % 0.00 in 67 W/m2
08:23 55.4 °F 51.0 °F 29.99 in West 9.0 mph 19.0 mph 85 % 0.00 in 74 W/m2
08:28 55.6 °F 51.1 °F 29.99 in WNW 9.0 mph 19.0 mph 85 % 0.00 in 62 W/m2
08:30 55.6 °F 51.1 °F 30.00 in WNW 8.0 mph 14.0 mph 85 % 0.00 in 56 W/m2
08:35 55.6 °F 51.1 °F 30.00 in WNW 8.0 mph 14.0 mph 85 % 0.00 in 74 W/m2
08:40 55.6 °F 51.1 °F 30.00 in WNW 7.0 mph 14.0 mph 85 % 0.00 in 98 W/m2
08:45 55.6 °F 51.1 °F 30.00 in WNW 6.0 mph 13.0 mph 85 % 0.00 in 90 W/m2
08:50 55.8 °F 51.3 °F 30.00 in WNW 7.0 mph 13.0 mph 85 % 0.00 in 123 W/m2
08:55 55.8 °F 51.3 °F 30.00 in West 7.0 mph 14.0 mph 85 % 0.00 in 102 W/m2
09:00 55.9 °F 51.2 °F 30.00 in West 7.0 mph 14.0 mph 84 % 0.00 in 116 W/m2
09:05 56.1 °F 51.4 °F 30.00 in WNW 7.0 mph 12.0 mph 84 % 0.00 in 111 W/m2
09:07 56.1 °F 51.4 °F 30.00 in West 7.0 mph 13.0 mph 84 % 0.00 in 120 W/m2
09:12 56.3 °F 51.2 °F 30.00 in West 8.0 mph 16.0 mph 83 % 0.00 in 155 W/m2
09:17 56.7 °F 51.6 °F 30.00 in West 9.0 mph 16.0 mph 83 % 0.00 in 153 W/m2
09:22 56.8 °F 51.4 °F 30.00 in West 8.0 mph 15.0 mph 82 % 0.00 in 179 W/m2
09:27 57.0 °F 51.6 °F 30.00 in West 8.0 mph 16.0 mph 82 % 0.00 in 158 W/m2
09:32 57.0 °F 51.2 °F 30.01 in West 9.0 mph 16.0 mph 81 % 0.00 in 185 W/m2
09:37 57.4 °F 51.6 °F 30.01 in West 9.0 mph 16.0 mph 81 % 0.00 in 192 W/m2
09:42 57.4 °F 51.3 °F 30.00 in West 9.0 mph 16.0 mph 80 % 0.00 in 160 W/m2
09:47 57.6 °F 51.4 °F 30.00 in WNW 10.0 mph 16.0 mph 80 % 0.00 in 206 W/m2
09:48 57.6 °F 51.4 °F 30.01 in WNW 10.0 mph 16.0 mph 80 % 0.00 in 209 W/m2
09:53 57.7 °F 51.6 °F 30.01 in WNW 10.0 mph 16.0 mph 80 % 0.00 in 186 W/m2
09:58 57.7 °F 51.3 °F 30.01 in WNW 10.0 mph 20.0 mph 79 % 0.00 in 139 W/m2
10:03 57.6 °F 51.8 °F 30.01 in WNW 11.0 mph 20.0 mph 81 % 0.00 in 160 W/m2
10:08 57.4 °F 51.9 °F 30.01 in WNW 9.0 mph 16.0 mph 82 % 0.00 in 130 W/m2
10:13 57.4 °F 52.3 °F 30.01 in NW 6.0 mph 12.0 mph 83 % 0.00 in 195 W/m2
10:18 57.2 °F 52.1 °F 30.01 in WNW 6.0 mph 18.0 mph 83 % 0.00 in 234 W/m2
10:23 57.2 °F 51.1 °F 30.01 in WNW 9.0 mph 18.0 mph 80 % 0.00 in 204 W/m2
10:28 57.4 °F 50.9 °F 30.01 in WNW 9.0 mph 15.0 mph 79 % 0.00 in 197 W/m2
10:33 57.6 °F 50.8 °F 30.01 in West 10.0 mph 21.0 mph 78 % 0.00 in 230 W/m2
10:38 57.6 °F 50.4 °F 30.01 in West 13.0 mph 21.0 mph 77 % 0.00 in 262 W/m2
10:43 57.6 °F 50.0 °F 30.01 in West 12.0 mph 21.0 mph 76 % 0.00 in 290 W/m2
10:48 57.7 °F 50.2 °F 30.02 in West 11.0 mph 22.0 mph 76 % 0.00 in 232 W/m2
10:53 57.9 °F 50.4 °F 30.02 in West 12.0 mph 22.0 mph 76 % 0.00 in 244 W/m2
10:58 57.9 °F 50.4 °F 30.02 in West 12.0 mph 20.0 mph 76 % 0.00 in 248 W/m2
11:03 58.3 °F 51.1 °F 30.02 in WNW 12.0 mph 19.0 mph 77 % 0.00 in 288 W/m2
11:08 58.5 °F 50.9 °F 30.02 in West 12.0 mph 19.0 mph 76 % 0.00 in 323 W/m2
11:13 58.6 °F 51.1 °F 30.02 in West 13.0 mph 22.0 mph 76 % 0.00 in 334 W/m2
11:18 58.8 °F 51.6 °F 30.02 in West 14.0 mph 22.0 mph 77 % 0.00 in 366 W/m2
11:23 59.2 °F 52.0 °F 30.02 in WNW 14.0 mph 23.0 mph 77 % 0.00 in 420 W/m2
11:28 59.2 °F 51.6 °F 30.02 in West 14.0 mph 23.0 mph 76 % 0.00 in 260 W/m2
11:33 59.0 °F 51.4 °F 30.01 in WNW 13.0 mph 22.0 mph 76 % 0.00 in 214 W/m2
11:38 59.4 °F 52.1 °F 30.01 in WNW 12.0 mph 21.0 mph 77 % 0.00 in 360 W/m2
11:44 59.7 °F 52.1 °F 30.02 in West 12.0 mph 21.0 mph 76 % 0.00 in 290 W/m2
11:49 59.7 °F 52.1 °F 30.02 in WNW 12.0 mph 22.0 mph 76 % 0.00 in 316 W/m2
11:54 59.7 °F 52.1 °F 30.02 in WNW 13.0 mph 22.0 mph 76 % 0.00 in 343 W/m2
11:59 59.7 °F 52.1 °F 30.02 in WNW 13.0 mph 24.0 mph 76 % 0.00 in 332 W/m2
12:04 59.7 °F 52.1 °F 30.02 in West 13.0 mph 24.0 mph 76 % 0.00 in 292 W/m2
12:09 59.7 °F 52.1 °F 30.03 in West 13.0 mph 23.0 mph 76 % 0.00 in 271 W/m2
12:14 59.4 °F 51.8 °F 30.03 in WNW 14.0 mph 23.0 mph 76 % 0.00 in 262 W/m2
12:19 59.2 °F 51.6 °F 30.03 in WNW 12.0 mph 23.0 mph 76 % 0.00 in 188 W/m2
12:24 59.2 °F 51.6 °F 30.03 in WNW 10.0 mph 16.0 mph 76 % 0.00 in 206 W/m2
12:29 59.2 °F 52.0 °F 30.03 in West 9.0 mph 16.0 mph 77 % 0.00 in 267 W/m2
12:34 59.2 °F 52.0 °F 30.02 in West 10.0 mph 16.0 mph 77 % 0.00 in 288 W/m2
12:39 59.4 °F 52.1 °F 30.02 in West 10.0 mph 16.0 mph 77 % 0.00 in 271 W/m2
12:44 59.5 °F 52.0 °F 30.02 in WNW 10.0 mph 16.0 mph 76 % 0.00 in 236 W/m2
12:49 59.7 °F 52.1 °F 30.02 in WNW 10.0 mph 16.0 mph 76 % 0.00 in 294 W/m2
12:54 60.1 °F 52.1 °F 30.02 in West 9.0 mph 16.0 mph 75 % 0.00 in 352 W/m2
12:59 60.4 °F 52.8 °F 30.02 in WNW 8.0 mph 16.0 mph 76 % 0.00 in 471 W/m2
13:04 61.0 °F 52.6 °F 30.02 in WNW 8.0 mph 15.0 mph 74 % 0.00 in 167 W/m2
13:09 61.0 °F 52.3 °F 30.03 in WNW 9.0 mph 19.0 mph 73 % 0.00 in 176 W/m2
13:12 60.8 °F 51.3 °F 30.03 in WNW 10.0 mph 19.0 mph 71 % 0.00 in 206 W/m2
13:17 60.6 °F 51.5 °F 30.03 in West 11.0 mph 19.0 mph 72 % 0.00 in 214 W/m2
13:22 60.4 °F 51.0 °F 30.03 in WNW 11.0 mph 20.0 mph 71 % 0.00 in 251 W/m2
13:27 60.4 °F 51.0 °F 30.03 in WNW 11.0 mph 22.0 mph 71 % 0.00 in 250 W/m2
13:32 60.4 °F 50.6 °F 30.03 in WNW 11.0 mph 22.0 mph 70 % 0.00 in 294 W/m2
13:37 60.6 °F 51.5 °F 30.03 in WNW 10.0 mph 20.0 mph 72 % 0.00 in 220 W/m2
13:42 60.8 °F 51.3 °F 30.03 in WNW 10.0 mph 20.0 mph 71 % 0.00 in 186 W/m2
13:47 60.6 °F 50.8 °F 30.03 in WNW 10.0 mph 19.0 mph 70 % 0.00 in 181 W/m2
13:52 60.6 °F 51.2 °F 30.03 in West 8.0 mph 13.0 mph 71 % 0.00 in 197 W/m2
13:57 60.6 °F 50.8 °F 30.03 in West 9.0 mph 18.0 mph 70 % 0.00 in 216 W/m2
14:02 60.4 °F 50.6 °F 30.03 in West 9.0 mph 18.0 mph 70 % 0.00 in 308 W/m2
14:07 60.6 °F 50.4 °F 30.03 in West 11.0 mph 20.0 mph 69 % 0.00 in 334 W/m2
14:12 61.0 °F 50.7 °F 30.03 in West 12.0 mph 20.0 mph 69 % 0.00 in 264 W/m2
14:17 61.2 °F 50.5 °F 30.03 in WNW 11.0 mph 19.0 mph 68 % 0.00 in 265 W/m2
14:23 61.3 °F 50.7 °F 30.03 in West 10.0 mph 19.0 mph 68 % 0.00 in 292 W/m2
14:28 61.3 °F 50.7 °F 30.03 in West 10.0 mph 18.0 mph 68 % 0.00 in 220 W/m2
14:33 61.3 °F 50.3 °F 30.03 in West 11.0 mph 19.0 mph 67 % 0.00 in 294 W/m2
14:38 61.2 °F 50.1 °F 30.04 in West 12.0 mph 20.0 mph 67 % 0.00 in 320 W/m2
14:43 61.2 °F 50.1 °F 30.04 in West 12.0 mph 20.0 mph 67 % 0.00 in 431 W/m2
14:48 61.3 °F 50.3 °F 30.03 in WNW 11.0 mph 19.0 mph 67 % 0.00 in 366 W/m2
14:53 61.5 °F 50.5 °F 30.04 in West 12.0 mph 21.0 mph 67 % 0.00 in 529 W/m2
14:58 61.5 °F 50.9 °F 30.04 in West 13.0 mph 24.0 mph 68 % 0.00 in 264 W/m2
15:03 61.2 °F 50.9 °F 30.04 in West 12.0 mph 24.0 mph 69 % 0.00 in 185 W/m2
15:08 61.0 °F 50.7 °F 30.04 in West 10.0 mph 20.0 mph 69 % 0.00 in 128 W/m2
15:13 60.6 °F 50.4 °F 30.04 in West 10.0 mph 16.0 mph 69 % 0.00 in 151 W/m2
15:18 60.4 °F 50.2 °F 30.04 in West 10.0 mph 19.0 mph 69 % 0.00 in 265 W/m2
15:23 60.6 °F 50.4 °F 30.04 in West 11.0 mph 19.0 mph 69 % 0.00 in 318 W/m2
15:28 60.8 °F 50.6 °F 30.03 in West 10.0 mph 18.0 mph 69 % 0.00 in 302 W/m2
15:33 61.2 °F 51.3 °F 30.03 in West 8.0 mph 16.0 mph 70 % 0.00 in 297 W/m2
15:38 61.3 °F 50.7 °F 30.03 in West 10.0 mph 23.0 mph 68 % 0.00 in 250 W/m2
15:43 61.3 °F 50.3 °F 30.03 in West 14.0 mph 23.0 mph 67 % 0.00 in 290 W/m2
15:48 61.3 °F 50.7 °F 30.03 in WNW 13.0 mph 23.0 mph 68 % 0.00 in 468 W/m2
15:53 62.1 °F 51.8 °F 30.03 in WNW 10.0 mph 16.0 mph 69 % 0.00 in 517 W/m2
15:58 62.6 °F 51.1 °F 30.03 in West 11.0 mph 19.0 mph 66 % 0.00 in 550 W/m2
16:03 62.6 °F 51.5 °F 30.03 in West 13.0 mph 22.0 mph 67 % 0.00 in 563 W/m2
16:08 62.8 °F 51.7 °F 30.03 in West 13.0 mph 22.0 mph 67 % 0.00 in 552 W/m2
16:13 63.1 °F 52.0 °F 30.03 in West 12.0 mph 24.0 mph 67 % 0.00 in 552 W/m2
16:18 63.0 °F 51.4 °F 30.03 in West 13.0 mph 24.0 mph 66 % 0.00 in 283 W/m2
16:23 62.8 °F 51.2 °F 30.03 in West 13.0 mph 21.0 mph 66 % 0.00 in 237 W/m2
16:28 62.6 °F 50.7 °F 30.03 in WNW 12.0 mph 19.0 mph 65 % 0.00 in 214 W/m2
16:33 62.4 °F 50.5 °F 30.03 in West 13.0 mph 26.0 mph 65 % 0.00 in 568 W/m2
16:38 62.8 °F 50.8 °F 30.03 in West 12.0 mph 26.0 mph 65 % 0.00 in 265 W/m2
16:39 62.8 °F 50.8 °F 30.03 in West 13.0 mph 26.0 mph 65 % 0.00 in 253 W/m2
16:44 62.4 °F 50.9 °F 30.03 in West 12.0 mph 21.0 mph 66 % 0.00 in 206 W/m2
16:49 62.2 °F 50.3 °F 30.03 in West 12.0 mph 22.0 mph 65 % 0.00 in 204 W/m2
16:54 61.9 °F 50.4 °F 30.03 in West 13.0 mph 25.0 mph 66 % 0.00 in 248 W/m2
16:59 61.7 °F 50.2 °F 30.03 in West 13.0 mph 25.0 mph 66 % 0.00 in 167 W/m2
17:04 61.3 °F 50.3 °F 30.03 in West 15.0 mph 26.0 mph 67 % 0.00 in 146 W/m2
17:09 61.2 °F 50.5 °F 30.03 in WNW 14.0 mph 26.0 mph 68 % 0.00 in 127 W/m2
17:14 61.0 °F 50.3 °F 30.03 in West 12.0 mph 22.0 mph 68 % 0.00 in 141 W/m2
17:19 60.8 °F 50.6 °F 30.03 in West 11.0 mph 19.0 mph 69 % 0.00 in 88 W/m2
17:24 60.6 °F 50.8 °F 30.03 in West 12.0 mph 19.0 mph 70 % 0.00 in 97 W/m2
17:29 60.4 °F 50.6 °F 30.03 in West 12.0 mph 20.0 mph 70 % 0.00 in 37 W/m2
17:34 60.3 °F 50.8 °F 30.04 in WNW 13.0 mph 23.0 mph 71 % 0.00 in 42 W/m2
17:39 60.1 °F 51.0 °F 30.03 in WNW 13.0 mph 23.0 mph 72 % 0.00 in 67 W/m2
17:44 59.9 °F 50.8 °F 30.03 in WNW 12.0 mph 21.0 mph 72 % 0.00 in 79 W/m2
17:49 59.7 °F 50.7 °F 30.02 in WNW 13.0 mph 27.0 mph 72 % 0.00 in 88 W/m2
17:54 59.5 °F 50.5 °F 30.02 in West 14.0 mph 27.0 mph 72 % 0.00 in 93 W/m2
17:59 59.5 °F 50.9 °F 30.02 in WNW 14.0 mph 24.0 mph 73 % 0.00 in 105 W/m2
18:04 59.4 °F 51.1 °F 30.02 in WNW 14.0 mph 24.0 mph 74 % 0.00 in 113 W/m2
18:09 59.4 °F 51.1 °F 30.02 in WNW 13.0 mph 22.0 mph 74 % 0.00 in 105 W/m2
18:15 59.2 °F 50.9 °F 30.02 in WNW 13.0 mph 22.0 mph 74 % 0.00 in 93 W/m2
18:19 59.2 °F 50.9 °F 30.02 in WNW 15.0 mph 27.0 mph 74 % 0.00 in 90 W/m2
18:24 59.0 °F 50.7 °F 30.02 in West 16.0 mph 27.0 mph 74 % 0.00 in 88 W/m2
18:29 58.8 °F 50.5 °F 30.02 in West 15.0 mph 25.0 mph 74 % 0.00 in 74 W/m2
18:35 58.8 °F 50.5 °F 30.02 in West 14.0 mph 25.0 mph 74 % 0.00 in 70 W/m2
18:40 58.8 °F 50.5 °F 30.03 in West 14.0 mph 25.0 mph 74 % 0.00 in 83 W/m2
18:45 58.8 °F 50.5 °F 30.03 in West 14.0 mph 21.0 mph 74 % 0.00 in 63 W/m2
18:50 58.6 °F 50.4 °F 30.03 in West 12.0 mph 21.0 mph 74 % 0.00 in 51 W/m2
18:55 58.6 °F 50.7 °F 30.03 in West 9.0 mph 18.0 mph 75 % 0.00 in 44 W/m2
19:00 58.6 °F 50.7 °F 30.03 in West 8.0 mph 15.0 mph 75 % 0.00 in 37 W/m2
19:05 58.5 °F 50.6 °F 30.03 in West 8.0 mph 15.0 mph 75 % 0.00 in 32 W/m2
19:10 58.5 °F 50.9 °F 30.03 in West 7.0 mph 19.0 mph 76 % 0.00 in 25 W/m2
19:15 58.3 °F 50.7 °F 30.03 in West 8.0 mph 19.0 mph 76 % 0.00 in 18 W/m2
19:20 58.3 °F 50.7 °F 30.04 in West 8.0 mph 15.0 mph 76 % 0.00 in 21 W/m2
19:25 58.3 °F 51.1 °F 30.03 in West 8.0 mph 15.0 mph 77 % 0.00 in 23 W/m2
19:30 58.1 °F 50.9 °F 30.04 in West 8.0 mph 13.0 mph 77 % 0.00 in 18 W/m2
19:35 57.9 °F 50.8 °F 30.04 in West 8.0 mph 13.0 mph 77 % 0.00 in 12 W/m2
19:40 57.9 °F 50.8 °F 30.04 in West 8.0 mph 15.0 mph 77 % 0.00 in 9 W/m2
19:45 57.7 °F 50.9 °F 30.05 in WNW 9.0 mph 15.0 mph 78 % 0.00 in 5 W/m2
19:50 57.6 °F 50.8 °F 30.05 in WNW 9.0 mph 15.0 mph 78 % 0.00 in 0 W/m2
19:55 57.6 °F 50.8 °F 30.05 in West 8.0 mph 13.0 mph 78 % 0.00 in 0 W/m2
20:00 57.4 °F 50.9 °F 30.05 in WNW 8.0 mph 13.0 mph 79 % 0.00 in 0 W/m2
20:05 57.2 °F 50.7 °F 30.05 in West 8.0 mph 13.0 mph 79 % 0.00 in 0 W/m2
20:10 57.2 °F 51.1 °F 30.05 in West 6.0 mph 13.0 mph 80 % 0.00 in 0 W/m2
20:15 57.0 °F 50.9 °F 30.05 in West 4.0 mph 10.0 mph 80 % 0.00 in 0 W/m2
20:20 57.0 °F 50.9 °F 30.05 in West 5.0 mph 9.0 mph 80 % 0.00 in 0 W/m2
20:25 56.8 °F 50.7 °F 30.05 in WNW 5.0 mph 9.0 mph 80 % 0.00 in 0 W/m2
20:30 57.0 °F 50.9 °F 30.05 in WNW 5.0 mph 9.0 mph 80 % 0.00 in 0 W/m2
20:35 57.0 °F 51.2 °F 30.05 in West 5.0 mph 11.0 mph 81 % 0.00 in 0 W/m2
20:40 57.0 °F 51.2 °F 30.05 in West 5.0 mph 11.0 mph 81 % 0.00 in 0 W/m2
20:41 57.0 °F 50.9 °F 30.05 in West 5.0 mph 11.0 mph 80 % 0.00 in 0 W/m2
20:46 57.0 °F 51.2 °F 30.05 in West 4.0 mph 11.0 mph 81 % 0.00 in 0 W/m2
20:51 57.0 °F 51.2 °F 30.05 in West 5.0 mph 9.0 mph 81 % 0.00 in 0 W/m2
20:56 56.8 °F 51.1 °F 30.05 in West 5.0 mph 9.0 mph 81 % 0.00 in 0 W/m2
21:01 57.0 °F 51.2 °F 30.05 in West 5.0 mph 9.0 mph 81 % 0.00 in 0 W/m2
21:06 56.8 °F 51.1 °F 30.05 in West 4.0 mph 9.0 mph 81 % 0.00 in 0 W/m2
21:11 56.8 °F 51.1 °F 30.05 in West 4.0 mph 8.0 mph 81 % 0.00 in 0 W/m2
21:16 56.8 °F 51.1 °F 30.05 in West 3.0 mph 8.0 mph 81 % 0.00 in 0 W/m2
21:21 56.7 °F 50.9 °F 30.05 in WSW 2.0 mph 6.0 mph 81 % 0.00 in 0 W/m2
21:26 56.7 °F 50.9 °F 30.05 in WSW 3.0 mph 7.0 mph 81 % 0.00 in 0 W/m2
21:31 56.5 °F 51.1 °F 30.05 in WSW 3.0 mph 7.0 mph 82 % 0.00 in 0 W/m2
21:36 56.5 °F 51.1 °F 30.05 in WSW 3.0 mph 7.0 mph 82 % 0.00 in 0 W/m2
21:41 56.5 °F 51.1 °F 30.05 in WSW 3.0 mph 5.0 mph 82 % 0.00 in 0 W/m2
21:47 56.5 °F 51.1 °F 30.05 in WSW 3.0 mph 8.0 mph 82 % 0.00 in 0 W/m2
21:52 56.5 °F 51.1 °F 30.04 in WSW 4.0 mph 8.0 mph 82 % 0.00 in 0 W/m2
21:57 56.3 °F 50.9 °F 30.04 in WSW 3.0 mph 6.0 mph 82 % 0.00 in 0 W/m2
22:02 56.1 °F 50.7 °F 30.04 in WSW 2.0 mph 6.0 mph 82 % 0.00 in 0 W/m2
22:07 56.1 °F 51.0 °F 30.04 in WSW 1.0 mph 4.0 mph 83 % 0.00 in 0 W/m2
22:12 56.1 °F 51.0 °F 30.04 in WSW 1.0 mph 6.0 mph 83 % 0.00 in 0 W/m2
22:17 55.9 °F 50.9 °F 30.04 in WSW 2.0 mph 6.0 mph 83 % 0.00 in 0 W/m2
22:22 55.9 °F 50.9 °F 30.04 in WSW 3.0 mph 6.0 mph 83 % 0.00 in 0 W/m2
22:26 55.8 °F 51.0 °F 30.04 in WSW 4.0 mph 7.0 mph 84 % 0.00 in 0 W/m2
22:31 55.8 °F 51.0 °F 30.03 in WSW 5.0 mph 8.0 mph 84 % 0.00 in 0 W/m2
22:36 55.8 °F 51.0 °F 30.03 in WSW 5.0 mph 10.0 mph 84 % 0.00 in 0 W/m2
22:41 55.8 °F 51.0 °F 30.04 in WSW 5.0 mph 10.0 mph 84 % 0.00 in 0 W/m2
22:46 55.8 °F 51.0 °F 30.04 in West 4.0 mph 8.0 mph 84 % 0.00 in 0 W/m2
22:51 55.8 °F 51.0 °F 30.04 in West 5.0 mph 7.0 mph 84 % 0.00 in 0 W/m2
22:52 55.8 °F 51.0 °F 30.04 in West 5.0 mph 7.0 mph 84 % 0.00 in 0 W/m2
22:57 55.9 °F 51.2 °F 30.04 in West 4.0 mph 7.0 mph 84 % 0.00 in 0 W/m2
23:02 55.9 °F 51.2 °F 30.04 in West 4.0 mph 7.0 mph 84 % 0.00 in 0 W/m2
23:07 55.9 °F 51.2 °F 30.04 in West 4.0 mph 7.0 mph 84 % 0.00 in 0 W/m2
23:12 55.9 °F 51.8 °F 30.04 in West 5.0 mph 8.0 mph 86 % 0.01 in 0 W/m2
23:17 55.8 °F 51.6 °F 30.04 in West 5.0 mph 8.0 mph 86 % 0.01 in 0 W/m2
23:22 55.6 °F 51.8 °F 30.03 in WSW 4.0 mph 8.0 mph 87 % 0.01 in 0 W/m2
23:27 55.6 °F 51.8 °F 30.04 in WSW 3.0 mph 8.0 mph 87 % 0.02 in 0 W/m2
23:32 55.2 °F 51.7 °F 30.04 in West 4.0 mph 7.0 mph 88 % 0.02 in 0 W/m2
23:37 55.2 °F 51.7 °F 30.04 in West 4.0 mph 7.0 mph 88 % 0.02 in 0 W/m2
23:42 55.0 °F 51.9 °F 30.03 in WNW 3.0 mph 6.0 mph 89 % 0.02 in 0 W/m2
23:47 54.9 °F 51.7 °F 30.04 in WNW 1.0 mph 6.0 mph 89 % 0.02 in 0 W/m2
23:52 54.9 °F 51.7 °F 30.03 in Calm     89 % 0.02 in 0 W/m2
23:57 54.7 °F 51.8 °F 30.03 in Calm     90 % 0.02 in 0 W/m2
Delerius-Weather
Compliments of Weather Underground - 2.25 mb

Data updates at regular intervals.